Time;durP1;ratioP1;P1;durP2;ratioP2;P2;SDS_P1;SDS_P2;PMS_P1;PMS_P2;Temp;Humidity;BMP_temperature;BMP_pressure;BME280_temperature;BME280_humidity;BME280_pressure;Samples;Min_cycle;Max_cycle;Signal;HPM_P1;HPM_P2
2023/04/19 00:02:19;;;;;;;;;;;;;;;13.70;54.89;100881.91;4940765;28;20294;-77
2023/04/19 00:05:12;;;;;;;;;;;;;;;13.63;55.28;100875.34;4949811;29;20293;-77
2023/04/19 00:08:04;;;;;;;;;;;;;;;13.51;55.18;100876.06;4947800;28;19914;-77
2023/04/19 00:10:56;;;;;;;;;;;;;;;13.47;55.78;100866.94;4921434;29;19915;-77
2023/04/19 00:13:48;;;;;;;;;;;;;;;13.62;55.15;100874.56;4927045;29;19914;-77
2023/04/19 00:16:40;;;;;;;;;;;;;;;13.52;55.52;100869.47;4933969;29;19919;-77
2023/04/19 00:19:32;;;;;;;;;;;;;;;13.71;54.79;100866.31;4940044;29;20370;-78
2023/04/19 00:22:24;;;;;;;;;;;;;;;13.73;54.79;100866.75;4938174;29;19914;-77
2023/04/19 00:25:16;;;;;;;;;;;;;;;13.70;54.75;100865.50;4942571;29;19914;-77
2023/04/19 00:28:05;;;;;;;;;;;;;;;13.79;54.84;100862.72;4940312;29;19914;-77
2023/04/19 00:30:57;;;;;;;;;;;;;;;13.74;54.88;100859.38;4949404;28;19914;-77
2023/04/19 00:33:49;;;;;;;;;;;;;;;13.85;54.73;100863.31;4934004;29;19915;-77
2023/04/19 00:36:41;;;;;;;;;;;;;;;13.90;54.66;100860.38;4918040;29;19919;-77
2023/04/19 00:39:35;;;;;;;;;;;;;;;13.96;54.57;100848.13;4921921;29;19915;-76
2023/04/19 00:42:27;;;;;;;;;;;;;;;14.03;54.55;100859.28;4941801;28;19922;-77
2023/04/19 00:45:19;;;;;;;;;;;;;;;13.96;54.62;100848.13;4938882;29;19926;-77
2023/04/19 00:48:11;;;;;;;;;;;;;;;13.91;54.99;100848.31;4939212;28;19914;-77
2023/04/19 00:51:00;;;;;;;;;;;;;;;13.94;55.16;100842.16;4947269;28;20385;-77
2023/04/19 00:53:53;;;;;;;;;;;;;;;13.94;55.31;100847.63;4934082;29;19914;-77
2023/04/19 00:56:45;;;;;;;;;;;;;;;13.85;55.62;100842.25;4936289;29;20294;-77
2023/04/19 00:59:39;;;;;;;;;;;;;;;13.83;56.13;100846.44;4919305;29;19915;-78
2023/04/19 01:02:31;;;;;;;;;;;;;;;13.86;55.76;100845.78;5000143;23;19922;-76
2023/04/19 01:05:23;;;;;;;;;;;;;;;13.91;55.37;100835.44;4944848;28;19918;-76
2023/04/19 01:08:15;;;;;;;;;;;;;;;13.89;55.77;100845.09;4944998;29;19914;-76
2023/04/19 01:11:07;;;;;;;;;;;;;;;13.93;55.51;100840.56;4956083;29;19914;-76
2023/04/19 01:13:59;;;;;;;;;;;;;;;13.97;55.78;100833.28;4924999;29;19919;-76
2023/04/19 01:16:51;;;;;;;;;;;;;;;13.96;55.96;100834.44;4921400;29;19923;-76
2023/04/19 01:19:43;;;;;;;;;;;;;;;14.04;55.81;100833.56;4915191;29;19915;-76
2023/04/19 01:22:34;;;;;;;;;;;;;;;13.91;56.06;100832.72;4913292;29;19915;-76
2023/04/19 01:25:27;;;;;;;;;;;;;;;13.81;56.75;100821.38;4930121;29;19915;-76
2023/04/19 01:28:19;;;;;;;;;;;;;;;13.83;56.57;100817.16;4906475;29;20329;-76
2023/04/19 01:31:12;;;;;;;;;;;;;;;13.96;56.31;100823.50;4901272;29;19916;-76
2023/04/19 01:34:04;;;;;;;;;;;;;;;13.88;56.44;100822.44;4919255;29;19914;-76
2023/04/19 01:36:56;;;;;;;;;;;;;;;14.03;56.03;100823.75;4917317;29;19919;-76
2023/04/19 01:39:48;;;;;;;;;;;;;;;13.96;56.14;100812.56;4920842;29;19915;-76
2023/04/19 01:42:40;;;;;;;;;;;;;;;13.86;56.48;100813.78;4918881;29;19915;-75
2023/04/19 01:45:31;;;;;;;;;;;;;;;13.95;56.37;100816.44;4913416;29;20377;-76
2023/04/19 01:48:23;;;;;;;;;;;;;;;13.93;56.45;100813.22;4921142;29;19919;-76
2023/04/19 01:51:16;;;;;;;;;;;;;;;14.06;56.14;100817.63;4917573;29;19915;-76
2023/04/19 01:54:08;;;;;;;;;;;;;;;14.03;56.37;100812.81;4920850;29;19914;-76
2023/04/19 01:56:59;;;;;;;;;;;;;;;14.02;56.40;100813.94;4908821;29;20388;-76
2023/04/19 01:59:51;;;;;;;;;;;;;;;13.97;56.35;100820.41;4907183;29;19923;-75
2023/04/19 02:02:43;;;;;;;;;;;;;;;14.09;56.17;100822.41;4929384;28;20294;-76
2023/04/19 02:05:35;;;;;;;;;;;;;;;14.08;56.13;100812.59;4886738;29;19915;-76
2023/04/19 02:08:27;;;;;;;;;;;;;;;14.04;56.08;100817.16;4913769;29;19915;-76
2023/04/19 02:11:19;;;;;;;;;;;;;;;13.86;56.80;100812.97;4911988;29;19918;-76
2023/04/19 02:14:11;;;;;;;;;;;;;;;13.88;56.79;100813.44;4917684;29;19915;-76
2023/04/19 02:17:03;;;;;;;;;;;;;;;14.03;56.36;100808.16;4920641;29;20370;-76
2023/04/19 02:19:55;;;;;;;;;;;;;;;13.99;56.57;100809.16;4918775;29;19915;-76
2023/04/19 02:22:46;;;;;;;;;;;;;;;13.96;56.54;100805.16;4918388;29;19915;-76
2023/04/19 02:25:38;;;;;;;;;;;;;;;14.03;56.39;100810.06;4919621;29;19915;-76
2023/04/19 02:28:30;;;;;;;;;;;;;;;13.93;56.77;100802.28;4924567;29;19915;-76
2023/04/19 02:31:22;;;;;;;;;;;;;;;13.94;56.66;100810.16;4932238;29;19914;-76
2023/04/19 02:34:14;;;;;;;;;;;;;;;13.90;56.71;100806.50;4931678;29;20386;-76
2023/04/19 02:37:06;;;;;;;;;;;;;;;13.88;56.78;100808.75;4914039;29;19930;-76
2023/04/19 02:39:57;;;;;;;;;;;;;;;13.93;56.64;100807.75;4923876;29;19914;-76
2023/04/19 02:42:50;;;;;;;;;;;;;;;13.94;56.51;100801.16;4908779;29;19914;-76
2023/04/19 02:45:44;;;;;;;;;;;;;;;13.87;56.59;100798.16;4909966;29;19915;-76
2023/04/19 02:48:36;;;;;;;;;;;;;;;13.82;56.90;100790.16;4922112;29;19914;-76
2023/04/19 02:51:23;;;;;;;;;;;;;;;13.74;57.15;100796.50;4897379;29;19916;-76
2023/04/19 02:54:14;;;;;;;;;;;;;;;13.69;57.36;100795.59;4926745;29;19918;-75
2023/04/19 02:57:06;;;;;;;;;;;;;;;13.89;56.63;100795.91;4919697;29;19919;-75
2023/04/19 02:59:59;;;;;;;;;;;;;;;13.86;56.50;100802.03;4921332;29;19914;-76
2023/04/19 03:02:51;;;;;;;;;;;;;;;13.79;56.59;100796.31;4905909;29;20290;-76
2023/04/19 03:05:43;;;;;;;;;;;;;;;13.84;56.66;100793.38;4921632;29;19919;-76
2023/04/19 03:08:34;;;;;;;;;;;;;;;13.84;56.54;100794.16;4917501;29;19914;-76
2023/04/19 03:11:26;;;;;;;;;;;;;;;13.90;56.40;100798.31;4927454;29;19915;-76
2023/04/19 03:14:18;;;;;;;;;;;;;;;13.85;56.90;100789.50;4917703;29;19918;-76
2023/04/19 03:17:10;;;;;;;;;;;;;;;13.79;56.82;100788.91;4915722;29;19923;-76
2023/04/19 03:20:02;;;;;;;;;;;;;;;13.76;56.55;100786.06;4927432;29;19915;-76
2023/04/19 03:22:53;;;;;;;;;;;;;;;13.79;56.40;100788.09;4914023;29;19915;-76
2023/04/19 03:25:45;;;;;;;;;;;;;;;13.74;56.56;100785.56;4920111;29;19919;-76
2023/04/19 03:28:48;;;;;;;;;;;;;;;13.67;56.62;100781.44;4921344;29;19915;-76
2023/04/19 03:31:49;;;;;;;;;;;;;;;13.63;56.88;100783.25;4916876;29;19922;-76
2023/04/19 03:34:41;;;;;;;;;;;;;;;13.64;56.85;100781.31;4931988;29;19919;-76
2023/04/19 03:37:34;;;;;;;;;;;;;;;13.62;56.94;100781.66;4908805;29;19919;-76
2023/04/19 03:40:25;;;;;;;;;;;;;;;13.58;57.10;100786.19;4927640;29;19915;-76
2023/04/19 03:43:17;;;;;;;;;;;;;;;13.58;57.00;100780.72;4917553;29;19915;-76
2023/04/19 03:46:09;;;;;;;;;;;;;;;13.58;57.29;100780.72;4923045;29;20386;-76
2023/04/19 03:49:01;;;;;;;;;;;;;;;13.46;57.50;100777.91;4917440;29;20395;-76
2023/04/19 03:51:53;;;;;;;;;;;;;;;13.33;58.01;100778.19;4920778;29;20306;-76
2023/04/19 03:54:45;;;;;;;;;;;;;;;13.19;58.16;100773.78;4909431;29;19915;-76
2023/04/19 03:57:49;;;;;;;;;;;;;;;13.30;57.60;100778.84;4924966;29;19923;-76
2023/04/19 04:00:44;;;;;;;;;;;;;;;13.34;57.94;100766.13;4899975;29;19915;-76
2023/04/19 04:03:36;;;;;;;;;;;;;;;13.15;58.19;100777.50;4931247;29;19915;-76
2023/04/19 04:06:28;;;;;;;;;;;;;;;13.18;58.17;100779.56;4927357;29;20301;-76
2023/04/19 04:09:20;;;;;;;;;;;;;;;13.06;58.40;100780.22;4930204;29;19915;-76
2023/04/19 04:12:12;;;;;;;;;;;;;;;13.14;58.14;100775.91;4929632;29;19914;-76
2023/04/19 04:15:04;;;;;;;;;;;;;;;13.09;58.60;100776.06;4922591;29;19915;-76
2023/04/19 04:17:57;;;;;;;;;;;;;;;13.16;57.84;100784.53;4930535;29;19919;-76
2023/04/19 04:20:49;;;;;;;;;;;;;;;13.12;58.33;100789.06;4919316;29;19927;-76
2023/04/19 04:23:42;;;;;;;;;;;;;;;13.06;58.46;100779.44;4908919;29;19915;-76
2023/04/19 04:26:38;;;;;;;;;;;;;;;13.07;58.58;100776.38;4920964;29;19915;-76
2023/04/19 04:29:41;;;;;;;;;;;;;;;13.15;58.43;100772.84;4946833;28;20451;-76
2023/04/19 04:32:34;;;;;;;;;;;;;;;13.16;58.30;100776.34;4913172;29;19914;-76
2023/04/19 04:35:26;;;;;;;;;;;;;;;13.13;58.27;100787.94;4920307;29;19915;-76
2023/04/19 04:38:20;;;;;;;;;;;;;;;13.02;58.35;100778.50;4910941;29;19931;-76
2023/04/19 04:41:12;;;;;;;;;;;;;;;13.01;58.36;100788.63;4916485;29;19915;-77
2023/04/19 04:44:04;;;;;;;;;;;;;;;12.91;58.37;100783.53;4906934;29;19915;-76
2023/04/19 04:46:56;;;;;;;;;;;;;;;13.03;58.28;100785.56;4912987;29;19915;-77
2023/04/19 04:49:49;;;;;;;;;;;;;;;12.98;58.46;100789.28;4928665;29;19918;-76
2023/04/19 04:52:39;;;;;;;;;;;;;;;12.88;58.80;100789.66;4904202;29;20407;-76
2023/04/19 04:55:33;;;;;;;;;;;;;;;12.95;58.76;100789.94;4918623;29;20378;-76
2023/04/19 04:58:25;;;;;;;;;;;;;;;13.14;57.96;100790.34;4918394;29;19919;-76
2023/04/19 05:01:22;;;;;;;;;;;;;;;13.25;57.57;100794.31;4915307;29;20298;-76
2023/04/19 05:04:12;;;;;;;;;;;;;;;13.43;57.84;100799.63;4920342;29;19915;-76
2023/04/19 05:07:05;;;;;;;;;;;;;;;13.50;58.88;100792.53;4906543;29;20303;-77
2023/04/19 05:09:54;;;;;;;;;;;;;;;13.45;58.42;100787.25;4915008;29;20442;-77
2023/04/19 05:12:48;;;;;;;;;;;;;;;13.52;58.71;100797.63;4926108;29;19914;-77
2023/04/19 05:15:40;;;;;;;;;;;;;;;13.17;60.32;100791.59;4924859;29;19918;-78
2023/04/19 05:18:32;;;;;;;;;;;;;;;12.98;61.75;100793.94;4902200;29;19919;-77
2023/04/19 05:21:24;;;;;;;;;;;;;;;13.02;61.01;100789.41;4918009;29;19915;-77
2023/04/19 05:24:16;;;;;;;;;;;;;;;12.97;60.96;100801.31;4915505;29;19923;-77
2023/04/19 05:27:09;;;;;;;;;;;;;;;13.37;59.41;100801.75;4936387;29;19915;-77
2023/04/19 05:30:00;;;;;;;;;;;;;;;13.49;59.08;100796.38;4927319;29;19918;-78
2023/04/19 05:32:50;;;;;;;;;;;;;;;13.62;58.58;100798.03;4922731;29;20302;-82
2023/04/19 05:35:41;;;;;;;;;;;;;;;13.67;58.56;100803.31;4909282;29;19915;-78
2023/04/19 05:38:33;;;;;;;;;;;;;;;13.88;58.40;100800.56;4916345;29;19918;-77
2023/04/19 05:41:26;;;;;;;;;;;;;;;13.99;57.61;100799.03;4929341;29;19915;-77
2023/04/19 05:44:15;;;;;;;;;;;;;;;14.12;57.29;100799.84;4917565;29;19915;-77
2023/04/19 05:47:07;;;;;;;;;;;;;;;14.37;56.54;100807.06;4929541;29;19915;-77
2023/04/19 05:50:16;;;;;;;;;;;;;;;14.66;55.59;100805.28;4918606;29;19915;-77
2023/04/19 05:53:10;;;;;;;;;;;;;;;14.84;55.71;100801.16;4910064;29;19923;-77
2023/04/19 05:56:02;;;;;;;;;;;;;;;15.25;54.91;100814.63;4931900;29;19915;-77
2023/04/19 05:58:54;;;;;;;;;;;;;;;15.53;53.96;100808.47;4931525;29;20381;-77
2023/04/19 06:01:46;;;;;;;;;;;;;;;15.44;55.16;100816.75;4929643;29;20451;-76
2023/04/19 06:04:38;;;;;;;;;;;;;;;15.79;55.20;100811.59;4921506;29;19915;-76
2023/04/19 06:07:30;;;;;;;;;;;;;;;16.13;53.16;100813.75;4918703;29;20309;-76
2023/04/19 06:10:21;;;;;;;;;;;;;;;16.15;52.96;100808.69;4934927;29;19927;-76
2023/04/19 06:13:13;;;;;;;;;;;;;;;16.12;52.37;100809.41;4929520;29;20381;-76
2023/04/19 06:16:05;;;;;;;;;;;;;;;16.35;52.93;100806.91;4925286;29;19915;-76
2023/04/19 06:18:57;;;;;;;;;;;;;;;16.33;53.69;100805.63;4932387;29;19918;-76
2023/04/19 06:21:46;;;;;;;;;;;;;;;16.45;52.70;100811.88;4928485;29;19914;-77
2023/04/19 06:24:36;;;;;;;;;;;;;;;16.73;53.24;100802.78;4915786;29;19915;-76
2023/04/19 06:30:25;;;;;;;;;;;;;;;16.98;52.10;100799.50;4905311;29;19924;-79
2023/04/19 06:33:17;;;;;;;;;;;;;;;17.01;51.21;100801.53;4916492;29;19915;-79
2023/04/19 06:36:09;;;;;;;;;;;;;;;17.40;50.31;100799.69;4908649;29;20297;-79
2023/04/19 06:39:01;;;;;;;;;;;;;;;17.63;48.78;100802.56;4899716;29;19920;-78
2023/04/19 06:41:53;;;;;;;;;;;;;;;17.65;49.17;100803.00;4884540;29;20367;-78
2023/04/19 06:44:45;;;;;;;;;;;;;;;17.71;48.18;100801.56;4885293;29;19915;-77
2023/04/19 06:47:37;;;;;;;;;;;;;;;17.89;46.46;100804.66;4900900;29;19923;-78
2023/04/19 06:50:28;;;;;;;;;;;;;;;18.18;47.46;100808.81;4885703;29;19916;-79
2023/04/19 06:53:20;;;;;;;;;;;;;;;18.52;45.59;100812.56;4888519;29;20247;-77
2023/04/19 06:56:12;;;;;;;;;;;;;;;18.87;45.77;100806.91;4911016;29;19919;-77
2023/04/19 06:59:04;;;;;;;;;;;;;;;18.90;44.91;100803.41;4907291;29;19920;-78
2023/04/19 07:01:56;;;;;;;;;;;;;;;19.14;42.54;100805.78;4885074;29;19915;-79
2023/04/19 07:04:48;;;;;;;;;;;;;;;20.18;41.70;100814.25;4882691;29;20295;-78
2023/04/19 07:07:39;;;;;;;;;;;;;;;20.19;41.30;100815.84;4898018;29;19915;-79
2023/04/19 07:10:29;;;;;;;;;;;;;;;20.21;41.02;100822.59;4907047;29;19915;-77
2023/04/19 07:13:21;;;;;;;;;;;;;;;21.23;38.61;100814.47;4913140;29;19919;-78
2023/04/19 07:16:13;;;;;;;;;;;;;;;22.73;34.91;100805.59;4905657;29;19915;-79
2023/04/19 07:19:05;;;;;;;;;;;;;;;20.89;37.76;100811.03;4905389;29;20306;-79
2023/04/19 07:21:56;;;;;;;;;;;;;;;21.02;37.98;100810.75;4908931;29;19915;-77
2023/04/19 07:24:48;;;;;;;;;;;;;;;20.34;38.08;100815.66;4919960;29;19915;-78
2023/04/19 07:27:40;;;;;;;;;;;;;;;19.26;40.86;100813.81;4906069;29;20354;-78
2023/04/19 07:30:32;;;;;;;;;;;;;;;18.78;41.49;100807.97;4908711;29;19915;-78
2023/04/19 07:33:25;;;;;;;;;;;;;;;17.64;43.59;100811.59;4910938;29;19920;-80
2023/04/19 07:36:16;;;;;;;;;;;;;;;17.44;44.60;100806.06;4908086;29;19924;-77
2023/04/19 07:39:08;;;;;;;;;;;;;;;17.23;46.25;100797.31;4923649;29;20382;-77
2023/04/19 07:42:00;;;;;;;;;;;;;;;17.59;45.13;100801.69;4909895;29;19915;-78
2023/04/19 07:44:52;;;;;;;;;;;;;;;17.15;45.91;100801.06;4910905;29;19919;-77
2023/04/19 07:47:44;;;;;;;;;;;;;;;17.56;45.13;100805.13;4909640;29;19916;-77
2023/04/19 07:50:36;;;;;;;;;;;;;;;17.12;46.68;100799.03;4897303;29;20294;-77
2023/04/19 07:53:28;;;;;;;;;;;;;;;17.53;45.20;100803.09;4916903;29;19919;-78
2023/04/19 07:56:19;;;;;;;;;;;;;;;17.44;45.38;100799.75;4893258;29;19916;-78
2023/04/19 07:59:11;;;;;;;;;;;;;;;18.23;44.27;100792.00;4895864;29;19929;-78
2023/04/19 08:02:01;;;;;;;;;;;;;;;17.66;45.34;100795.56;4904300;29;19919;-82
2023/04/19 08:04:50;;;;;;;;;;;;;;;17.49;45.36;100793.97;4910507;29;19915;-78
2023/04/19 08:07:42;;;;;;;;;;;;;;;19.19;42.01;100795.22;4900154;29;21113;-78
2023/04/19 08:10:34;;;;;;;;;;;;;;;18.38;42.85;100796.59;4913665;29;19919;-78
2023/04/19 08:13:26;;;;;;;;;;;;;;;19.04;41.15;100798.13;4900201;29;20386;-77
2023/04/19 08:16:18;;;;;;;;;;;;;;;18.33;41.58;100794.16;4907276;29;20390;-77
2023/04/19 08:19:10;;;;;;;;;;;;;;;18.12;42.74;100789.03;4900212;29;19923;-77
2023/04/19 08:22:02;;;;;;;;;;;;;;;18.26;42.38;100789.28;4913038;29;19919;-77
2023/04/19 08:24:52;;;;;;;;;;;;;;;18.65;41.61;100784.50;4905597;29;19915;-78
2023/04/19 08:27:44;;;;;;;;;;;;;;;19.15;40.99;100785.28;4917959;29;20401;-78
2023/04/19 08:30:36;;;;;;;;;;;;;;;18.85;41.72;100781.66;4890534;29;19915;-76
2023/04/19 08:33:29;;;;;;;;;;;;;;;19.24;40.93;100777.56;4887283;29;19919;-76
2023/04/19 08:36:21;;;;;;;;;;;;;;;19.53;39.87;100778.78;4887518;29;19915;-77
2023/04/19 08:39:13;;;;;;;;;;;;;;;20.27;38.74;100787.91;4886169;29;19926;-77
2023/04/19 08:42:08;;;;;;;;;;;;;;;20.74;37.85;100775.38;4893534;29;20379;-78
2023/04/19 08:45:01;;;;;;;;;;;;;;;20.45;38.04;100777.09;4915896;29;19915;-78
2023/04/19 08:47:53;;;;;;;;;;;;;;;19.63;39.88;100778.91;4889625;29;19916;-77
2023/04/19 08:50:45;;;;;;;;;;;;;;;21.08;37.56;100768.50;4898296;29;19915;-78
2023/04/19 08:53:37;;;;;;;;;;;;;;;20.93;37.55;100761.28;4899062;29;19916;-77
2023/04/19 08:56:29;;;;;;;;;;;;;;;20.69;38.11;100768.22;4893115;29;19915;-78
2023/04/19 08:59:20;;;;;;;;;;;;;;;20.91;37.69;100764.47;4885785;29;20302;-77
2023/04/19 09:02:12;;;;;;;;;;;;;;;21.85;35.90;100761.03;4912886;29;19916;-77
2023/04/19 09:05:04;;;;;;;;;;;;;;;21.92;35.21;100763.81;4886702;29;21204;-75
2023/04/19 09:07:53;;;;;;;;;;;;;;;21.67;35.87;100750.69;4895402;29;20369;-75
2023/04/19 09:10:53;;;;;;;;;;;;;;;22.03;35.08;100757.16;4902655;29;20374;-77
2023/04/19 09:13:45;;;;;;;;;;;;;;;21.76;35.42;100759.41;4904744;29;20294;-78
2023/04/19 09:16:38;;;;;;;;;;;;;;;19.97;38.61;100751.31;4907261;29;19923;-77
2023/04/19 09:19:46;;;;;;;;;;;;;;;19.42;39.12;100739.97;4910042;29;19920;-76
2023/04/19 09:22:38;;;;;;;;;;;;;;;19.49;39.62;100742.88;4901775;29;19919;-75
2023/04/19 09:25:30;;;;;;;;;;;;;;;21.00;36.76;100728.16;4895297;29;19915;-76
2023/04/19 09:28:22;;;;;;;;;;;;;;;19.43;40.03;100736.06;4891951;29;20379;-75
2023/04/19 09:31:17;;;;;;;;;;;;;;;20.45;38.15;100727.38;4894601;29;20298;-76
2023/04/19 09:34:21;;;;;;;;;;;;;;;20.52;37.72;100730.16;4894743;29;19916;-77
2023/04/19 09:37:16;;;;;;;;;;;;;;;19.90;38.63;100731.94;4905197;29;19915;-77
2023/04/19 09:40:27;;;;;;;;;;;;;;;20.27;38.78;100720.84;4903004;29;19919;-77
2023/04/19 09:43:24;;;;;;;;;;;;;;;19.56;39.51;100722.84;4919718;29;19915;-76
2023/04/19 09:46:35;;;;;;;;;;;;;;;20.43;37.47;100716.69;4900682;29;19915;-77
2023/04/19 09:49:27;;;;;;;;;;;;;;;22.21;33.95;100704.56;4910392;29;19915;-77
2023/04/19 09:52:19;;;;;;;;;;;;;;;21.43;34.95;100700.78;4886565;29;19915;-77
2023/04/19 09:55:09;;;;;;;;;;;;;;;22.71;32.98;100696.25;4909622;29;19915;-77
2023/04/19 09:58:01;;;;;;;;;;;;;;;21.99;33.22;100694.66;4888282;29;19919;-77
2023/04/19 10:00:54;;;;;;;;;;;;;;;21.97;34.75;100686.72;4890617;29;19915;-77
2023/04/19 10:03:48;;;;;;;;;;;;;;;21.25;35.25;100684.88;4895801;29;19920;-77
2023/04/19 10:06:38;;;;;;;;;;;;;;;22.67;32.89;100679.63;4908715;29;19915;-77
2023/04/19 10:09:25;;;;;;;;;;;;;;;21.82;34.37;100685.09;4892271;29;20302;-77
2023/04/19 10:12:17;;;;;;;;;;;;;;;23.13;31.46;100678.75;4902145;29;19919;-76
2023/04/19 10:15:10;;;;;;;;;;;;;;;24.19;30.09;100672.69;4893196;29;19916;-77
2023/04/19 10:18:02;;;;;;;;;;;;;;;22.59;32.42;100670.53;4916399;29;19923;-78
2023/04/19 10:20:53;;;;;;;;;;;;;;;26.28;27.88;100665.47;4908340;29;19927;-75
2023/04/19 10:23:45;;;;;;;;;;;;;;;26.30;27.13;100668.63;4904697;29;19915;-77
2023/04/19 10:26:55;;;;;;;;;;;;;;;24.73;29.42;100662.69;4903309;29;20378;-77
2023/04/19 10:29:57;;;;;;;;;;;;;;;32.13;19.73;100658.03;4909042;29;20374;-77
2023/04/19 10:32:52;;;;;;;;;;;;;;;32.87;19.52;100656.88;4894189;29;20301;-77
2023/04/19 10:35:45;;;;;;;;;;;;;;;32.61;19.16;100655.63;4916360;29;20295;-78
2023/04/19 10:38:45;;;;;;;;;;;;;;;26.91;25.40;100632.09;4910881;29;19927;-76
2023/04/19 10:41:53;;;;;;;;;;;;;;;31.69;20.47;100631.28;4897466;29;19923;-77
2023/04/19 10:45:03;;;;;;;;;;;;;;;30.29;21.30;100628.31;4900413;29;19916;-76
2023/04/19 10:47:54;;;;;;;;;;;;;;;28.71;22.31;100629.88;4897188;29;19978;-76
2023/04/19 10:50:58;;;;;;;;;;;;;;;28.70;22.31;100614.31;4898028;29;19915;-76
2023/04/19 10:53:51;;;;;;;;;;;;;;;29.18;22.38;100612.59;4896942;29;19915;-78
2023/04/19 10:56:43;;;;;;;;;;;;;;;29.54;22.80;100606.72;4918441;29;19915;-78
2023/04/19 10:59:37;;;;;;;;;;;;;;;27.67;23.40;100596.56;4900089;29;19919;-77
2023/04/19 11:02:32;;;;;;;;;;;;;;;33.02;18.57;100600.66;4903794;29;19916;-81
2023/04/19 11:05:24;;;;;;;;;;;;;;;30.43;20.97;100587.75;4895969;29;19915;-77
2023/04/19 11:08:23;;;;;;;;;;;;;;;30.49;20.66;100581.16;4915121;29;20302;-76
2023/04/19 11:11:11;;;;;;;;;;;;;;;32.01;19.34;100580.09;4894581;29;19915;-77
2023/04/19 11:14:04;;;;;;;;;;;;;;;33.36;17.95;100574.16;4906831;29;19915;-77
2023/04/19 11:16:56;;;;;;;;;;;;;;;31.64;19.73;100558.78;4902848;29;19918;-77
2023/04/19 11:20:05;;;;;;;;;;;;;;;29.39;21.92;100557.97;4899703;29;19924;-77
2023/04/19 11:22:59;;;;;;;;;;;;;;;29.42;21.87;100546.63;4892372;29;19923;-76
2023/04/19 11:25:52;;;;;;;;;;;;;;;33.94;17.05;100546.28;4890702;29;19919;-77
2023/04/19 11:28:45;;;;;;;;;;;;;;;28.62;21.47;100548.56;4891789;29;19916;-77
2023/04/19 11:31:37;;;;;;;;;;;;;;;29.86;21.02;100533.59;4912535;29;19923;-76
2023/04/19 11:34:27;;;;;;;;;;;;;;;31.44;19.40;100539.47;4898313;29;19915;-77
2023/04/19 11:37:19;;;;;;;;;;;;;;;33.36;17.82;100537.50;4881928;29;19927;-76
2023/04/19 11:40:15;;;;;;;;;;;;;;;34.01;16.89;100533.06;4900341;29;19919;-78
2023/04/19 11:43:07;;;;;;;;;;;;;;;33.75;16.70;100527.91;4905999;29;19916;-77
2023/04/19 11:46:03;;;;;;;;;;;;;;;26.33;24.38;100508.81;4898508;29;19915;-77
2023/04/19 11:48:55;;;;;;;;;;;;;;;25.67;26.16;100508.00;4898014;29;19915;-76
2023/04/19 11:51:46;;;;;;;;;;;;;;;25.99;26.60;100502.66;4889872;29;19915;-76
2023/04/19 11:54:38;;;;;;;;;;;;;;;27.07;24.27;100502.94;4892783;29;19919;-77
2023/04/19 11:57:33;;;;;;;;;;;;;;;27.89;23.63;100499.75;4901031;29;19916;-78
2023/04/19 12:00:29;;;;;;;;;;;;;;;28.49;22.85;100487.00;4900668;29;19919;-76
2023/04/19 12:03:22;;;;;;;;;;;;;;;31.53;19.56;100488.09;4891686;29;19923;-77
2023/04/19 12:06:15;;;;;;;;;;;;;;;29.38;21.48;100478.72;4908986;29;19915;-78
2023/04/19 12:09:08;;;;;;;;;;;;;;;25.93;25.83;100466.16;4903845;29;19915;-76
2023/04/19 12:12:00;;;;;;;;;;;;;;;28.48;22.78;100465.81;4907507;29;20301;-76
2023/04/19 12:14:55;;;;;;;;;;;;;;;32.09;19.09;100468.84;4878769;29;19915;-77
2023/04/19 12:18:00;;;;;;;;;;;;;;;27.58;24.11;100467.84;4912413;29;19916;-77
2023/04/19 12:20:52;;;;;;;;;;;;;;;22.62;31.26;100458.25;4905998;29;19919;-76
2023/04/19 12:23:44;;;;;;;;;;;;;;;22.46;32.08;100457.91;4893623;29;19920;-78
2023/04/19 12:26:36;;;;;;;;;;;;;;;23.82;29.62;100446.34;4880865;29;19915;-77
2023/04/19 12:29:28;;;;;;;;;;;;;;;21.86;31.88;100450.53;4890525;29;19919;-77
2023/04/19 12:32:18;;;;;;;;;;;;;;;22.16;31.96;100444.56;4900724;29;19919;-78
2023/04/19 12:35:10;;;;;;;;;;;;;;;22.35;32.12;100441.34;4887955;29;19927;-78
2023/04/19 12:38:02;;;;;;;;;;;;;;;22.26;32.38;100438.19;4903178;29;19915;-79
2023/04/19 12:40:54;;;;;;;;;;;;;;;21.93;33.30;100436.69;4897166;29;19919;-78
2023/04/19 12:43:46;;;;;;;;;;;;;;;25.16;28.14;100429.22;4894117;29;20370;-78
2023/04/19 12:46:35;;;;;;;;;;;;;;;26.53;25.82;100427.16;4910626;29;20294;-78
2023/04/19 12:49:27;;;;;;;;;;;;;;;26.81;25.48;100437.72;4907205;29;19915;-77
2023/04/19 12:52:16;;;;;;;;;;;;;;;28.19;23.68;100425.13;4901320;29;19915;-76
2023/04/19 12:55:06;;;;;;;;;;;;;;;28.13;23.88;100415.72;4914502;29;19915;-77
2023/04/19 12:57:58;;;;;;;;;;;;;;;24.99;27.31;100416.38;4906820;29;19915;-77
2023/04/19 13:00:47;;;;;;;;;;;;;;;23.97;29.00;100408.13;4884896;29;19920;-77
2023/04/19 13:03:39;;;;;;;;;;;;;;;23.33;29.84;100400.38;4894106;29;19923;-76
2023/04/19 13:06:32;;;;;;;;;;;;;;;23.66;30.02;100398.13;4901028;29;19923;-77
2023/04/19 13:09:24;;;;;;;;;;;;;;;23.35;29.89;100392.44;4904780;29;19916;-76
2023/04/19 13:12:16;;;;;;;;;;;;;;;22.22;32.71;100386.78;4893231;29;19916;-77
2023/04/19 13:15:08;;;;;;;;;;;;;;;21.75;33.21;100386.88;4891813;29;19923;-77
2023/04/19 13:18:00;;;;;;;;;;;;;;;21.32;33.33;100377.88;4898855;29;19923;-77
2023/04/19 13:20:52;;;;;;;;;;;;;;;25.59;27.48;100378.44;4899419;29;19923;-77
2023/04/19 13:23:44;;;;;;;;;;;;;;;26.22;26.16;100373.63;4892452;29;19925;-76
2023/04/19 13:26:36;;;;;;;;;;;;;;;23.29;29.42;100368.28;4896982;29;19915;-82
2023/04/19 13:29:28;;;;;;;;;;;;;;;22.40;31.23;100365.34;4897181;29;19919;-77
2023/04/19 13:32:20;;;;;;;;;;;;;;;22.14;31.81;100359.13;4918836;29;19916;-77
2023/04/19 13:35:12;;;;;;;;;;;;;;;22.83;30.87;100363.13;4901627;29;19915;-76
2023/04/19 13:38:04;;;;;;;;;;;;;;;23.96;29.08;100342.66;4897597;29;20294;-78
2023/04/19 13:40:57;;;;;;;;;;;;;;;23.34;30.00;100340.91;4902170;29;19920;-77
2023/04/19 13:43:46;;;;;;;;;;;;;;;24.45;29.06;100346.78;4916056;29;19915;-76
2023/04/19 13:46:38;;;;;;;;;;;;;;;22.70;31.17;100332.28;4900574;29;19919;-76
2023/04/19 13:49:30;;;;;;;;;;;;;;;21.82;33.38;100327.16;4895820;29;19915;-76
2023/04/19 13:52:22;;;;;;;;;;;;;;;21.92;32.78;100331.88;4899337;29;20397;-76
2023/04/19 13:55:14;;;;;;;;;;;;;;;21.38;33.62;100322.94;4884787;29;20374;-77
2023/04/19 13:58:06;;;;;;;;;;;;;;;21.63;33.65;100317.34;4904659;29;19919;-76
2023/04/19 14:00:53;;;;;;;;;;;;;;;21.55;33.49;100311.03;4900302;29;19939;-76
2023/04/19 14:03:42;;;;;;;;;;;;;;;21.48;33.63;100310.25;4883834;29;19915;-76
2023/04/19 14:06:32;;;;;;;;;;;;;;;21.59;33.38;100305.47;4911674;29;19919;-76
2023/04/19 14:09:24;;;;;;;;;;;;;;;22.09;32.85;100300.59;4911124;29;19915;-78
2023/04/19 14:12:16;;;;;;;;;;;;;;;22.06;32.52;100296.63;4897061;29;19915;-76
2023/04/19 14:15:08;;;;;;;;;;;;;;;22.03;32.68;100291.13;4888615;29;19915;-76
2023/04/19 14:18:00;;;;;;;;;;;;;;;22.21;32.12;100291.00;4899639;29;20382;-77
2023/04/19 14:20:52;;;;;;;;;;;;;;;21.71;33.35;100286.47;4895794;29;19923;-78
2023/04/19 14:23:44;;;;;;;;;;;;;;;21.62;32.86;100282.56;4902412;29;19915;-77
2023/04/19 14:26:36;;;;;;;;;;;;;;;21.66;32.29;100283.31;4914125;29;19915;-77
2023/04/19 14:29:28;;;;;;;;;;;;;;;21.82;32.92;100283.66;4895019;29;19915;-77
2023/04/19 14:32:20;;;;;;;;;;;;;;;21.42;33.00;100278.66;4900023;29;19915;-77
2023/04/19 14:35:09;;;;;;;;;;;;;;;21.12;33.55;100263.28;4904984;29;19915;-77
2023/04/19 14:38:02;;;;;;;;;;;;;;;20.98;34.57;100266.03;4908780;29;19923;-78
2023/04/19 14:40:54;;;;;;;;;;;;;;;21.17;34.43;100260.16;4894445;29;19923;-77
2023/04/19 14:43:46;;;;;;;;;;;;;;;21.07;35.08;100258.16;4893840;29;19915;-78
2023/04/19 14:46:38;;;;;;;;;;;;;;;21.11;34.96;100263.66;4894911;29;19915;-78
2023/04/19 14:49:27;;;;;;;;;;;;;;;20.92;36.67;100262.13;4894872;29;20287;-76